sensor_id;sensor_type;location;lat;lon;timestamp;pressure;altitude;pressure_sealevel;temperature
75658;BMP280;64255;49.892;17.884;2023-02-15T00:01:12;100332.47;;;1.94
75658;BMP280;64255;49.892;17.884;2023-02-15T00:03:38;100332.13;;;1.96
75658;BMP280;64255;49.892;17.884;2023-02-15T00:06:06;100326.69;;;2.12
75658;BMP280;64255;49.892;17.884;2023-02-15T00:08:33;100327.63;;;2.00
75658;BMP280;64255;49.892;17.884;2023-02-15T00:11:10;100331.72;;;1.94
75658;BMP280;64255;49.892;17.884;2023-02-15T00:13:37;100328.50;;;1.81
75658;BMP280;64255;49.892;17.884;2023-02-15T00:16:11;100335.72;;;1.61
75658;BMP280;64255;49.892;17.884;2023-02-15T00:18:39;100338.66;;;1.55
75658;BMP280;64255;49.892;17.884;2023-02-15T00:21:09;100340.69;;;1.85
75658;BMP280;64255;49.892;17.884;2023-02-15T00:23:37;100334.91;;;1.80
75658;BMP280;64255;49.892;17.884;2023-02-15T00:26:10;100333.16;;;1.64
75658;BMP280;64255;49.892;17.884;2023-02-15T00:28:38;100321.16;;;1.70
75658;BMP280;64255;49.892;17.884;2023-02-15T00:31:11;100326.44;;;1.70
75658;BMP280;64255;49.892;17.884;2023-02-15T00:33:39;100314.81;;;1.75
75658;BMP280;64255;49.892;17.884;2023-02-15T00:36:11;100315.34;;;1.61
75658;BMP280;64255;49.892;17.884;2023-02-15T00:38:38;100315.81;;;1.67
75658;BMP280;64255;49.892;17.884;2023-02-15T00:41:08;100316.84;;;1.59
75658;BMP280;64255;49.892;17.884;2023-02-15T00:43:36;100313.41;;;1.58
75658;BMP280;64255;49.892;17.884;2023-02-15T00:46:05;100324.53;;;1.67
75658;BMP280;64255;49.892;17.884;2023-02-15T00:48:32;100308.69;;;1.67
75658;BMP280;64255;49.892;17.884;2023-02-15T00:51:01;100310.31;;;1.76
75658;BMP280;64255;49.892;17.884;2023-02-15T00:53:28;100310.84;;;1.62
75658;BMP280;64255;49.892;17.884;2023-02-15T00:55:58;100313.72;;;1.53
75658;BMP280;64255;49.892;17.884;2023-02-15T00:58:25;100308.19;;;1.38
75658;BMP280;64255;49.892;17.884;2023-02-15T01:00:53;100308.66;;;1.44
75658;BMP280;64255;49.892;17.884;2023-02-15T01:03:21;100311.13;;;1.33
75658;BMP280;64255;49.892;17.884;2023-02-15T01:05:49;100301.03;;;1.39
75658;BMP280;64255;49.892;17.884;2023-02-15T01:08:16;100297.41;;;1.47
75658;BMP280;64255;49.892;17.884;2023-02-15T01:10:44;100297.47;;;1.51
75658;BMP280;64255;49.892;17.884;2023-02-15T01:13:11;100289.53;;;1.28
75658;BMP280;64255;49.892;17.884;2023-02-15T01:15:38;100284.44;;;1.38
75658;BMP280;64255;49.892;17.884;2023-02-15T01:18:05;100284.97;;;1.48
75658;BMP280;64255;49.892;17.884;2023-02-15T01:20:36;100284.44;;;1.38
75658;BMP280;64255;49.892;17.884;2023-02-15T01:23:04;100281.56;;;1.24
75658;BMP280;64255;49.892;17.884;2023-02-15T01:25:34;100274.06;;;1.26
75658;BMP280;64255;49.892;17.884;2023-02-15T01:28:02;100275.53;;;1.23
75658;BMP280;64255;49.892;17.884;2023-02-15T01:30:29;100270.19;;;1.20
75658;BMP280;64255;49.892;17.884;2023-02-15T01:32:57;100273.88;;;1.15
75658;BMP280;64255;49.892;17.884;2023-02-15T01:35:24;100263.19;;;1.08
75658;BMP280;64255;49.892;17.884;2023-02-15T01:37:51;100258.47;;;0.98
75658;BMP280;64255;49.892;17.884;2023-02-15T01:40:19;100266.66;;;0.92
75658;BMP280;64255;49.892;17.884;2023-02-15T01:42:53;100260.84;;;0.83
75658;BMP280;64255;49.892;17.884;2023-02-15T01:45:27;100261.16;;;0.78
75658;BMP280;64255;49.892;17.884;2023-02-15T01:48:24;100254.25;;;0.73
75658;BMP280;64255;49.892;17.884;2023-02-15T01:50:59;100253.63;;;0.80
75658;BMP280;64255;49.892;17.884;2023-02-15T01:53:38;100255.44;;;0.76
75658;BMP280;64255;49.892;17.884;2023-02-15T01:56:19;100245.31;;;0.78
75658;BMP280;64255;49.892;17.884;2023-02-15T01:58:49;100253.28;;;0.82
75658;BMP280;64255;49.892;17.884;2023-02-15T02:01:18;100246.63;;;0.88
75658;BMP280;64255;49.892;17.884;2023-02-15T02:06:46;100245.88;;;0.87
75658;BMP280;64255;49.892;17.884;2023-02-15T02:09:16;100241.81;;;0.93
75658;BMP280;64255;49.892;17.884;2023-02-15T02:11:46;100240.91;;;1.05
75658;BMP280;64255;49.892;17.884;2023-02-15T02:14:16;100232.94;;;1.02
75658;BMP280;64255;49.892;17.884;2023-02-15T02:16:56;100220.44;;;0.99
75658;BMP280;64255;49.892;17.884;2023-02-15T02:34:33;100200.38;;;0.51
75658;BMP280;64255;49.892;17.884;2023-02-15T02:39:58;100201.19;;;0.55
75658;BMP280;64255;49.892;17.884;2023-02-15T02:42:43;100187.94;;;0.52
75658;BMP280;64255;49.892;17.884;2023-02-15T02:45:22;100189.75;;;0.48
75658;BMP280;64255;49.892;17.884;2023-02-15T02:48:06;100187.31;;;0.39
75658;BMP280;64255;49.892;17.884;2023-02-15T02:50:35;100180.59;;;0.41
75658;BMP280;64255;49.892;17.884;2023-02-15T02:53:05;100178.94;;;0.33
75658;BMP280;64255;49.892;17.884;2023-02-15T02:55:49;100182.16;;;0.23
75658;BMP280;64255;49.892;17.884;2023-02-15T02:58:36;100171.94;;;0.21
75658;BMP280;64255;49.892;17.884;2023-02-15T03:01:44;100177.75;;;0.30
75658;BMP280;64255;49.892;17.884;2023-02-15T03:04:21;100175.41;;;0.25
75658;BMP280;64255;49.892;17.884;2023-02-15T03:06:56;100180.03;;;0.12
75658;BMP280;64255;49.892;17.884;2023-02-15T03:09:36;100182.59;;;0.09
75658;BMP280;64255;49.892;17.884;2023-02-15T03:12:05;100181.00;;;0.04
75658;BMP280;64255;49.892;17.884;2023-02-15T03:14:33;100182.38;;;-0.02
75658;BMP280;64255;49.892;17.884;2023-02-15T03:17:04;100187.22;;;-0.04
75658;BMP280;64255;49.892;17.884;2023-02-15T03:19:37;100184.09;;;-0.10
75658;BMP280;64255;49.892;17.884;2023-02-15T03:22:31;100184.97;;;-0.22
75658;BMP280;64255;49.892;17.884;2023-02-15T03:25:15;100180.47;;;-0.21
75658;BMP280;64255;49.892;17.884;2023-02-15T03:27:55;100180.78;;;-0.23
75658;BMP280;64255;49.892;17.884;2023-02-15T03:30:29;100185.25;;;-0.27
75658;BMP280;64255;49.892;17.884;2023-02-15T03:32:59;100174.50;;;-0.34
75658;BMP280;64255;49.892;17.884;2023-02-15T03:38:44;100172.16;;;-0.23
75658;BMP280;64255;49.892;17.884;2023-02-15T03:41:19;100183.28;;;-0.46
75658;BMP280;64255;49.892;17.884;2023-02-15T03:44:12;100181.16;;;-0.40
75658;BMP280;64255;49.892;17.884;2023-02-15T03:46:54;100183.09;;;-0.37
75658;BMP280;64255;49.892;17.884;2023-02-15T03:52:03;100180.66;;;-0.30
75658;BMP280;64255;49.892;17.884;2023-02-15T03:54:34;100181.22;;;-0.37
75658;BMP280;64255;49.892;17.884;2023-02-15T03:57:03;100170.25;;;-0.39
75658;BMP280;64255;49.892;17.884;2023-02-15T03:59:29;100178.44;;;-0.44
75658;BMP280;64255;49.892;17.884;2023-02-15T04:02:16;100175.53;;;-0.55
75658;BMP280;64255;49.892;17.884;2023-02-15T04:04:47;100170.63;;;-0.56
75658;BMP280;64255;49.892;17.884;2023-02-15T04:07:14;100177.50;;;-0.68
75658;BMP280;64255;49.892;17.884;2023-02-15T04:09:42;100178.78;;;-0.62
75658;BMP280;64255;49.892;17.884;2023-02-15T04:12:08;100177.50;;;-0.68
75658;BMP280;64255;49.892;17.884;2023-02-15T04:14:36;100175.91;;;-0.72
75658;BMP280;64255;49.892;17.884;2023-02-15T04:17:07;100171.56;;;-0.65
75658;BMP280;64255;49.892;17.884;2023-02-15T04:19:35;100172.50;;;-0.57
75658;BMP280;64255;49.892;17.884;2023-02-15T04:22:03;100172.41;;;-0.60
75658;BMP280;64255;49.892;17.884;2023-02-15T04:24:30;100171.31;;;-0.59
75658;BMP280;64255;49.892;17.884;2023-02-15T04:26:58;100167.06;;;-0.64
75658;BMP280;64255;49.892;17.884;2023-02-15T04:29:27;100174.44;;;-0.70
75658;BMP280;64255;49.892;17.884;2023-02-15T04:31:57;100174.38;;;-0.57
75658;BMP280;64255;49.892;17.884;2023-02-15T04:34:25;100177.31;;;-0.59
75658;BMP280;64255;49.892;17.884;2023-02-15T04:36:53;100170.44;;;-0.64
75658;BMP280;64255;49.892;17.884;2023-02-15T04:39:20;100174.94;;;-0.48
75658;BMP280;64255;49.892;17.884;2023-02-15T04:41:47;100165.25;;;-0.60
75658;BMP280;64255;49.892;17.884;2023-02-15T04:44:15;100171.91;;;-0.66
75658;BMP280;64255;49.892;17.884;2023-02-15T04:46:42;100170.72;;;-0.69
75658;BMP280;64255;49.892;17.884;2023-02-15T04:49:10;100158.06;;;-0.63
75658;BMP280;64255;49.892;17.884;2023-02-15T04:51:37;100167.66;;;-0.87
75658;BMP280;64255;49.892;17.884;2023-02-15T04:54:05;100173.34;;;-0.85
75658;BMP280;64255;49.892;17.884;2023-02-15T04:56:32;100172.63;;;-1.14
75658;BMP280;64255;49.892;17.884;2023-02-15T04:58:59;100176.13;;;-0.94
75658;BMP280;64255;49.892;17.884;2023-02-15T05:01:26;100169.25;;;-0.98
75658;BMP280;64255;49.892;17.884;2023-02-15T05:03:53;100167.97;;;-0.88
75658;BMP280;64255;49.892;17.884;2023-02-15T05:06:21;100163.16;;;-0.70
75658;BMP280;64255;49.892;17.884;2023-02-15T05:08:48;100161.53;;;-0.75
75658;BMP280;64255;49.892;17.884;2023-02-15T05:11:15;100163.16;;;-0.70
75658;BMP280;64255;49.892;17.884;2023-02-15T05:13:43;100162.06;;;-0.69
75658;BMP280;64255;49.892;17.884;2023-02-15T05:16:10;100159.34;;;-0.89
75658;BMP280;64255;49.892;17.884;2023-02-15T05:18:37;100159.41;;;-1.01
75658;BMP280;64255;49.892;17.884;2023-02-15T05:21:04;100150.66;;;-1.05
75658;BMP280;64255;49.892;17.884;2023-02-15T05:23:32;100146.94;;;-1.04
75658;BMP280;64255;49.892;17.884;2023-02-15T05:25:59;100154.41;;;-1.06
75658;BMP280;64255;49.892;17.884;2023-02-15T05:28:27;100160.09;;;-1.04
75658;BMP280;64255;49.892;17.884;2023-02-15T05:31:14;100151.88;;;-1.03
75658;BMP280;64255;49.892;17.884;2023-02-15T05:33:42;100162.47;;;-0.99
75658;BMP280;64255;49.892;17.884;2023-02-15T05:36:09;100162.91;;;-0.97
75658;BMP280;64255;49.892;17.884;2023-02-15T05:38:38;100157.81;;;-0.90
75658;BMP280;64255;49.892;17.884;2023-02-15T05:41:10;100168.09;;;-0.85
75658;BMP280;64255;49.892;17.884;2023-02-15T05:43:38;100166.72;;;-0.79
75658;BMP280;64255;49.892;17.884;2023-02-15T05:46:06;100167.66;;;-0.71
75658;BMP280;64255;49.892;17.884;2023-02-15T05:48:34;100171.56;;;-0.65
75658;BMP280;64255;49.892;17.884;2023-02-15T05:53:35;100175.72;;;-0.64
75658;BMP280;64255;49.892;17.884;2023-02-15T05:56:06;100174.03;;;-0.56
75658;BMP280;64255;49.892;17.884;2023-02-15T05:58:40;100180.22;;;-0.48
75658;BMP280;64255;49.892;17.884;2023-02-15T06:01:13;100174.88;;;-0.52
75658;BMP280;64255;49.892;17.884;2023-02-15T06:03:42;100175.19;;;-0.53
75658;BMP280;64255;49.892;17.884;2023-02-15T06:06:09;100179.28;;;-0.56
75658;BMP280;64255;49.892;17.884;2023-02-15T06:08:38;100183.53;;;-0.51
75658;BMP280;64255;49.892;17.884;2023-02-15T06:11:06;100192.69;;;-0.45
75658;BMP280;64255;49.892;17.884;2023-02-15T06:13:34;100192.63;;;-0.33
75658;BMP280;64255;49.892;17.884;2023-02-15T06:16:02;100181.28;;;-0.33
75658;BMP280;64255;49.892;17.884;2023-02-15T06:18:29;100183.09;;;-0.21
75658;BMP280;64255;49.892;17.884;2023-02-15T06:20:56;100186.56;;;-0.33
75658;BMP280;64255;49.892;17.884;2023-02-15T06:23:24;100186.25;;;-0.16
75658;BMP280;64255;49.892;17.884;2023-02-15T06:25:51;100182.63;;;-0.07
75658;BMP280;64255;49.892;17.884;2023-02-15T06:28:19;100187.38;;;0.03
75658;BMP280;64255;49.892;17.884;2023-02-15T06:30:46;100184.75;;;0.03
75658;BMP280;64255;49.892;17.884;2023-02-15T06:33:14;100180.94;;;0.20
75658;BMP280;64255;49.892;17.884;2023-02-15T06:35:41;100185.66;;;0.30
75658;BMP280;64255;49.892;17.884;2023-02-15T06:38:08;100183.44;;;0.33
75658;BMP280;64255;49.892;17.884;2023-02-15T06:40:36;100183.09;;;0.34
75658;BMP280;64255;49.892;17.884;2023-02-15T06:43:03;100184.56;;;0.32
75658;BMP280;64255;49.892;17.884;2023-02-15T06:45:30;100182.69;;;0.32
75658;BMP280;64255;49.892;17.884;2023-02-15T06:47:57;100178.19;;;0.33
75658;BMP280;64255;49.892;17.884;2023-02-15T06:50:24;100182.06;;;0.39
75658;BMP280;64255;49.892;17.884;2023-02-15T06:52:59;100179.91;;;0.44
75658;BMP280;64255;49.892;17.884;2023-02-15T06:55:26;100181.50;;;0.49
75658;BMP280;64255;49.892;17.884;2023-02-15T06:57:54;100175.66;;;0.40
75658;BMP280;64255;49.892;17.884;2023-02-15T07:00:20;100173.28;;;0.54
75658;BMP280;64255;49.892;17.884;2023-02-15T07:02:55;100174.91;;;0.59
75658;BMP280;64255;49.892;17.884;2023-02-15T07:05:24;100172.13;;;0.71
75658;BMP280;64255;49.892;17.884;2023-02-15T07:07:50;100174.13;;;0.78
75658;BMP280;64255;49.892;17.884;2023-02-15T07:10:17;100171.88;;;0.80
75658;BMP280;64255;49.892;17.884;2023-02-15T07:12:45;100165.06;;;0.79
75658;BMP280;64255;49.892;17.884;2023-02-15T07:15:16;100164.75;;;0.81
75658;BMP280;64255;49.892;17.884;2023-02-15T07:17:44;100168.56;;;0.83
75658;BMP280;64255;49.892;17.884;2023-02-15T07:20:19;100167.50;;;0.88
75658;BMP280;64255;49.892;17.884;2023-02-15T07:22:49;100162.75;;;0.97
75658;BMP280;64255;49.892;17.884;2023-02-15T07:25:16;100160.59;;;1.03
75658;BMP280;64255;49.892;17.884;2023-02-15T07:27:44;100167.56;;;1.15
75658;BMP280;64255;49.892;17.884;2023-02-15T07:30:14;100154.53;;;1.52
75658;BMP280;64255;49.892;17.884;2023-02-15T07:32:43;100163.03;;;1.96
75658;BMP280;64255;49.892;17.884;2023-02-15T07:35:09;100164.72;;;2.11
75658;BMP280;64255;49.892;17.884;2023-02-15T07:37:37;100155.97;;;2.79
75658;BMP280;64255;49.892;17.884;2023-02-15T07:40:05;100155.97;;;3.27
75658;BMP280;64255;49.892;17.884;2023-02-15T07:42:33;100155.59;;;3.33
75658;BMP280;64255;49.892;17.884;2023-02-15T07:45:00;100143.47;;;2.76
75658;BMP280;64255;49.892;17.884;2023-02-15T07:47:27;100142.47;;;2.91
75658;BMP280;64255;49.892;17.884;2023-02-15T07:49:54;100135.09;;;3.19
75658;BMP280;64255;49.892;17.884;2023-02-15T07:52:22;100135.19;;;3.37
75658;BMP280;64255;49.892;17.884;2023-02-15T07:54:49;100126.72;;;3.80
75658;BMP280;64255;49.892;17.884;2023-02-15T07:57:16;100128.19;;;3.70
75658;BMP280;64255;49.892;17.884;2023-02-15T07:59:43;100123.53;;;3.41
75658;BMP280;64255;49.892;17.884;2023-02-15T08:02:11;100120.78;;;3.31
75658;BMP280;64255;49.892;17.884;2023-02-15T08:04:38;100119.84;;;3.68
75658;BMP280;64255;49.892;17.884;2023-02-15T08:07:06;100108.88;;;3.69
75658;BMP280;64255;49.892;17.884;2023-02-15T08:09:33;100103.81;;;3.39
75658;BMP280;64255;49.892;17.884;2023-02-15T08:11:59;100108.13;;;3.69
75658;BMP280;64255;49.892;17.884;2023-02-15T08:14:27;100092.34;;;4.30
75658;BMP280;64255;49.892;17.884;2023-02-15T08:16:59;100104.47;;;4.24
75658;BMP280;64255;49.892;17.884;2023-02-15T08:19:30;100104.91;;;4.44
75658;BMP280;64255;49.892;17.884;2023-02-15T08:22:04;100098.06;;;4.32
75658;BMP280;64255;49.892;17.884;2023-02-15T08:24:36;100103.38;;;4.50
75658;BMP280;64255;49.892;17.884;2023-02-15T08:27:07;100099.94;;;4.93
75658;BMP280;64255;49.892;17.884;2023-02-15T08:29:36;100089.97;;;5.30
75658;BMP280;64255;49.892;17.884;2023-02-15T08:32:08;100099.94;;;5.89
75658;BMP280;64255;49.892;17.884;2023-02-15T08:34:40;100089.34;;;6.80
75658;BMP280;64255;49.892;17.884;2023-02-15T08:37:08;100093.53;;;6.81
75658;BMP280;64255;49.892;17.884;2023-02-15T08:39:35;100095.69;;;7.28
75658;BMP280;64255;49.892;17.884;2023-02-15T08:42:03;100087.44;;;8.01
75658;BMP280;64255;49.892;17.884;2023-02-15T08:44:30;100081.78;;;7.99
75658;BMP280;64255;49.892;17.884;2023-02-15T08:46:57;100083.56;;;8.73
75658;BMP280;64255;49.892;17.884;2023-02-15T08:49:25;100077.22;;;8.87
75658;BMP280;64255;49.892;17.884;2023-02-15T08:51:52;100083.97;;;9.12
75658;BMP280;64255;49.892;17.884;2023-02-15T08:54:21;100081.84;;;8.63
75658;BMP280;64255;49.892;17.884;2023-02-15T08:56:48;100072.84;;;8.77
75658;BMP280;64255;49.892;17.884;2023-02-15T08:59:22;100068.75;;;9.09
75658;BMP280;64255;49.892;17.884;2023-02-15T09:01:51;100076.44;;;9.60
75658;BMP280;64255;49.892;17.884;2023-02-15T09:04:20;100062.94;;;9.30
75658;BMP280;64255;49.892;17.884;2023-02-15T09:06:50;100069.59;;;8.85
75658;BMP280;64255;49.892;17.884;2023-02-15T09:09:18;100069.25;;;9.40
75658;BMP280;64255;49.892;17.884;2023-02-15T09:11:49;100071.16;;;8.19
75658;BMP280;64255;49.892;17.884;2023-02-15T09:14:19;100071.22;;;7.64
75658;BMP280;64255;49.892;17.884;2023-02-15T09:16:49;100064.75;;;7.65
75658;BMP280;64255;49.892;17.884;2023-02-15T09:19:19;100059.72;;;7.43
75658;BMP280;64255;49.892;17.884;2023-02-15T09:21:47;100054.09;;;7.34
75658;BMP280;64255;49.892;17.884;2023-02-15T09:24:16;100065.59;;;7.31
75658;BMP280;64255;49.892;17.884;2023-02-15T09:26:47;100054.63;;;7.53
75658;BMP280;64255;49.892;17.884;2023-02-15T09:29:17;100056.75;;;7.65
75658;BMP280;64255;49.892;17.884;2023-02-15T09:31:48;100049.78;;;7.71
75658;BMP280;64255;49.892;17.884;2023-02-15T09:34:19;100048.78;;;7.89
75658;BMP280;64255;49.892;17.884;2023-02-15T09:36:48;100053.59;;;8.21
75658;BMP280;64255;49.892;17.884;2023-02-15T09:39:23;100057.22;;;8.07
75658;BMP280;64255;49.892;17.884;2023-02-15T10:09:03;100058.13;;;9.25
75658;BMP280;64255;49.892;17.884;2023-02-15T10:25:57;100044.19;;;7.89
75658;BMP280;64255;49.892;17.884;2023-02-15T10:28:53;100031.94;;;7.92
75658;BMP280;64255;49.892;17.884;2023-02-15T10:31:48;100026.72;;;8.08
75658;BMP280;64255;49.892;17.884;2023-02-15T10:34:39;100030.09;;;8.13
75658;BMP280;64255;49.892;17.884;2023-02-15T10:37:44;100022.22;;;8.25
75658;BMP280;64255;49.892;17.884;2023-02-15T11:08:07;99993.28;;;7.80
75658;BMP280;64255;49.892;17.884;2023-02-15T11:10:58;99982.94;;;7.82
75658;BMP280;64255;49.892;17.884;2023-02-15T11:13:34;99980.38;;;7.79
75658;BMP280;64255;49.892;17.884;2023-02-15T11:16:30;99991.63;;;7.90
75658;BMP280;64255;49.892;17.884;2023-02-15T11:19:06;99979.44;;;7.65
75658;BMP280;64255;49.892;17.884;2023-02-15T11:21:43;99984.28;;;7.70
75658;BMP280;64255;49.892;17.884;2023-02-15T11:24:14;99976.03;;;7.61
75658;BMP280;64255;49.892;17.884;2023-02-15T11:27:05;99969.94;;;7.64
75658;BMP280;64255;49.892;17.884;2023-02-15T11:32:56;99968.41;;;7.63
75658;BMP280;64255;49.892;17.884;2023-02-15T11:36:03;99968.34;;;7.43
75658;BMP280;64255;49.892;17.884;2023-02-15T11:38:33;99959.47;;;7.50
75658;BMP280;64255;49.892;17.884;2023-02-15T11:41:11;99962.53;;;7.48
75658;BMP280;64255;49.892;17.884;2023-02-15T11:46:27;99968.78;;;7.89
75658;BMP280;64255;49.892;17.884;2023-02-15T11:48:54;99964.75;;;7.77
75658;BMP280;64255;49.892;17.884;2023-02-15T11:51:23;99965.88;;;7.80
75658;BMP280;64255;49.892;17.884;2023-02-15T11:53:50;99959.47;;;7.97
75658;BMP280;64255;49.892;17.884;2023-02-15T11:56:22;99960.47;;;7.83
75658;BMP280;64255;49.892;17.884;2023-02-15T11:59:26;99953.06;;;8.15
75658;BMP280;64255;49.892;17.884;2023-02-15T12:01:55;99961.19;;;8.07
75658;BMP280;64255;49.892;17.884;2023-02-15T12:04:34;99957.00;;;8.06
75658;BMP280;64255;49.892;17.884;2023-02-15T12:07:17;99952.41;;;8.31
75658;BMP280;64255;49.892;17.884;2023-02-15T12:10:13;99955.25;;;8.20
75658;BMP280;64255;49.892;17.884;2023-02-15T12:12:43;99955.69;;;8.38
75658;BMP280;64255;49.892;17.884;2023-02-15T12:15:12;99955.88;;;8.48
75658;BMP280;64255;49.892;17.884;2023-02-15T12:17:54;99947.50;;;8.25
75658;BMP280;64255;49.892;17.884;2023-02-15T12:20:32;99957.31;;;8.32
75658;BMP280;64255;49.892;17.884;2023-02-15T12:23:08;99943.44;;;8.41
75658;BMP280;64255;49.892;17.884;2023-02-15T12:25:52;99952.88;;;8.46
75658;BMP280;64255;49.892;17.884;2023-02-15T12:28:36;99939.84;;;8.48
75658;BMP280;64255;49.892;17.884;2023-02-15T12:33:57;99936.88;;;8.46
75658;BMP280;64255;49.892;17.884;2023-02-15T12:36:38;99931.22;;;8.60
75658;BMP280;64255;49.892;17.884;2023-02-15T12:42:16;99932.69;;;8.81
75658;BMP280;64255;49.892;17.884;2023-02-15T12:45:04;99933.13;;;9.29
75658;BMP280;64255;49.892;17.884;2023-02-15T12:47:46;99934.84;;;9.23
75658;BMP280;64255;49.892;17.884;2023-02-15T12:50:23;99927.44;;;9.27
75658;BMP280;64255;49.892;17.884;2023-02-15T12:55:54;99923.47;;;9.19
75658;BMP280;64255;49.892;17.884;2023-02-15T12:58:24;99922.63;;;8.12
75658;BMP280;64255;49.892;17.884;2023-02-15T13:01:16;99923.13;;;9.33
75658;BMP280;64255;49.892;17.884;2023-02-15T13:04:03;99933.16;;;9.46
75658;BMP280;64255;49.892;17.884;2023-02-15T13:06:34;99923.78;;;9.21
75658;BMP280;64255;49.892;17.884;2023-02-15T13:09:25;99913.19;;;10.09
75658;BMP280;64255;49.892;17.884;2023-02-15T13:11:54;99915.66;;;10.16
75658;BMP280;64255;49.892;17.884;2023-02-15T13:14:33;99916.69;;;9.77
75658;BMP280;64255;49.892;17.884;2023-02-15T13:17:04;99914.44;;;9.46
75658;BMP280;64255;49.892;17.884;2023-02-15T13:19:52;99900.06;;;9.39
75658;BMP280;64255;49.892;17.884;2023-02-15T13:22:32;99905.50;;;9.36
75658;BMP280;64255;49.892;17.884;2023-02-15T13:25:10;99898.41;;;9.46
75658;BMP280;64255;49.892;17.884;2023-02-15T13:27:41;99898.31;;;9.33
75658;BMP280;64255;49.892;17.884;2023-02-15T13:30:24;99899.28;;;8.73
75658;BMP280;64255;49.892;17.884;2023-02-15T13:32:59;99892.13;;;8.70
75658;BMP280;64255;49.892;17.884;2023-02-15T13:35:42;99888.88;;;8.42
75658;BMP280;64255;49.892;17.884;2023-02-15T13:41:06;99888.56;;;8.00
75658;BMP280;64255;49.892;17.884;2023-02-15T13:52:48;99864.25;;;7.30
75658;BMP280;64255;49.892;17.884;2023-02-15T13:56:20;99861.59;;;7.30
75658;BMP280;64255;49.892;17.884;2023-02-15T14:05:29;99860.44;;;6.76
75658;BMP280;64255;49.892;17.884;2023-02-15T14:08:18;99862.69;;;6.82
75658;BMP280;64255;49.892;17.884;2023-02-15T14:21:37;99861.88;;;6.19
75658;BMP280;64255;49.892;17.884;2023-02-15T14:27:20;99872.69;;;6.05
75658;BMP280;64255;49.892;17.884;2023-02-15T14:29:59;99857.16;;;6.00
75658;BMP280;64255;49.892;17.884;2023-02-15T14:32:45;99851.53;;;5.94
75658;BMP280;64255;49.892;17.884;2023-02-15T14:35:22;99849.69;;;5.87
75658;BMP280;64255;49.892;17.884;2023-02-15T14:40:50;99840.38;;;5.68
75658;BMP280;64255;49.892;17.884;2023-02-15T14:49:33;99846.19;;;5.56
75658;BMP280;64255;49.892;17.884;2023-02-15T14:52:10;99843.97;;;5.47
75658;BMP280;64255;49.892;17.884;2023-02-15T14:59:54;99839.53;;;5.33
75658;BMP280;64255;49.892;17.884;2023-02-15T15:02:43;99847.59;;;5.22
75658;BMP280;64255;49.892;17.884;2023-02-15T15:05:34;99844.03;;;5.40
75658;BMP280;64255;49.892;17.884;2023-02-15T15:08:04;99848.16;;;4.88
75658;BMP280;64255;49.892;17.884;2023-02-15T15:10:45;99837.84;;;5.05
75658;BMP280;64255;49.892;17.884;2023-02-15T15:19:10;99833.75;;;4.96
75658;BMP280;64255;49.892;17.884;2023-02-15T15:33:46;99830.72;;;3.95
75658;BMP280;64255;49.892;17.884;2023-02-15T15:43:44;99828.88;;;3.48
75658;BMP280;64255;49.892;17.884;2023-02-15T15:48:54;99834.06;;;4.13
75658;BMP280;64255;49.892;17.884;2023-02-15T15:51:32;99826.94;;;3.81
75658;BMP280;64255;49.892;17.884;2023-02-15T15:54:02;99833.78;;;3.50
75658;BMP280;64255;49.892;17.884;2023-02-15T15:56:34;99838.25;;;3.06
75658;BMP280;64255;49.892;17.884;2023-02-15T15:59:07;99833.38;;;3.22
75658;BMP280;64255;49.892;17.884;2023-02-15T16:01:41;99840.56;;;3.76
75658;BMP280;64255;49.892;17.884;2023-02-15T16:04:28;99833.72;;;3.14
75658;BMP280;64255;49.892;17.884;2023-02-15T16:07:13;99831.41;;;2.90
75658;BMP280;64255;49.892;17.884;2023-02-15T16:09:40;99843.53;;;3.13
75658;BMP280;64255;49.892;17.884;2023-02-15T16:12:16;99848.16;;;3.52
75658;BMP280;64255;49.892;17.884;2023-02-15T16:14:44;99844.72;;;3.37
75658;BMP280;64255;49.892;17.884;2023-02-15T16:17:22;99842.41;;;3.14
75658;BMP280;64255;49.892;17.884;2023-02-15T16:19:59;99833.25;;;2.83
75658;BMP280;64255;49.892;17.884;2023-02-15T16:22:28;99836.59;;;2.58
75658;BMP280;64255;49.892;17.884;2023-02-15T16:25:35;99837.47;;;2.94
75658;BMP280;64255;49.892;17.884;2023-02-15T16:28:12;99829.44;;;2.69
75658;BMP280;64255;49.892;17.884;2023-02-15T16:30:41;99843.81;;;2.64
75658;BMP280;64255;49.892;17.884;2023-02-15T16:33:16;99836.38;;;3.10
75658;BMP280;64255;49.892;17.884;2023-02-15T16:35:58;99830.97;;;2.77
75658;BMP280;64255;49.892;17.884;2023-02-15T16:41:21;99835.88;;;2.72
75658;BMP280;64255;49.892;17.884;2023-02-15T16:43:51;99834.97;;;2.39
75658;BMP280;64255;49.892;17.884;2023-02-15T16:46:33;99831.41;;;2.90
75658;BMP280;64255;49.892;17.884;2023-02-15T16:49:34;99821.78;;;2.42
75658;BMP280;64255;49.892;17.884;2023-02-15T16:52:05;99826.16;;;2.16
75658;BMP280;64255;49.892;17.884;2023-02-15T16:54:34;99823.72;;;2.53
75658;BMP280;64255;49.892;17.884;2023-02-15T16:57:02;99827.81;;;2.43
75658;BMP280;64255;49.892;17.884;2023-02-15T16:59:41;99822.66;;;2.64
75658;BMP280;64255;49.892;17.884;2023-02-15T17:02:25;99831.03;;;2.88
75658;BMP280;64255;49.892;17.884;2023-02-15T17:05:18;99827.03;;;2.39
75658;BMP280;64255;49.892;17.884;2023-02-15T17:08:10;99824.78;;;2.41
75658;BMP280;64255;49.892;17.884;2023-02-15T17:10:41;99826.44;;;2.67
75658;BMP280;64255;49.892;17.884;2023-02-15T17:13:13;99824.63;;;2.12
75658;BMP280;64255;49.892;17.884;2023-02-15T17:18:44;99815.78;;;2.56
75658;BMP280;64255;49.892;17.884;2023-02-15T17:21:29;99813.94;;;2.57
75658;BMP280;64255;49.892;17.884;2023-02-15T17:24:00;99819.47;;;2.37
75658;BMP280;64255;49.892;17.884;2023-02-15T17:26:35;99820.19;;;2.23
75658;BMP280;64255;49.892;17.884;2023-02-15T17:31:59;99796.06;;;2.32
75658;BMP280;64255;49.892;17.884;2023-02-15T17:35:17;99799.91;;;2.53
75658;BMP280;64255;49.892;17.884;2023-02-15T17:37:49;99798.25;;;2.23
75658;BMP280;64255;49.892;17.884;2023-02-15T17:40:29;99797.94;;;2.28
75658;BMP280;64255;49.892;17.884;2023-02-15T17:42:57;99797.94;;;2.28
75658;BMP280;64255;49.892;17.884;2023-02-15T17:45:42;99797.09;;;2.13
75658;BMP280;64255;49.892;17.884;2023-02-15T17:50:46;99799.13;;;2.45
75658;BMP280;64255;49.892;17.884;2023-02-15T17:53:17;99797.97;;;2.42